sensor_id;sensor_type;location;lat;lon;timestamp;P1;durP1;ratioP1;P2;durP2;ratioP2
59474;SDS011;45288;51.136;16.928;2023-03-23T00:01:27;124.43;;;78.03;;
59474;SDS011;45288;51.136;16.928;2023-03-23T00:03:55;100.90;;;65.10;;
59474;SDS011;45288;51.136;16.928;2023-03-23T00:06:25;117.75;;;74.18;;
59474;SDS011;45288;51.136;16.928;2023-03-23T00:08:51;108.83;;;72.07;;
59474;SDS011;45288;51.136;16.928;2023-03-23T00:11:22;105.43;;;67.10;;
59474;SDS011;45288;51.136;16.928;2023-03-23T00:13:49;108.65;;;73.55;;
59474;SDS011;45288;51.136;16.928;2023-03-23T00:16:18;117.80;;;76.53;;
59474;SDS011;45288;51.136;16.928;2023-03-23T00:18:45;100.75;;;65.40;;
59474;SDS011;45288;51.136;16.928;2023-03-23T00:21:11;117.47;;;74.18;;
59474;SDS011;45288;51.136;16.928;2023-03-23T00:23:36;109.55;;;65.32;;
59474;SDS011;45288;51.136;16.928;2023-03-23T00:26:03;115.70;;;76.60;;
59474;SDS011;45288;51.136;16.928;2023-03-23T00:28:29;107.05;;;69.10;;
59474;SDS011;45288;51.136;16.928;2023-03-23T00:30:58;107.87;;;65.13;;
59474;SDS011;45288;51.136;16.928;2023-03-23T00:33:25;107.93;;;68.90;;
59474;SDS011;45288;51.136;16.928;2023-03-23T00:35:51;109.75;;;70.78;;
59474;SDS011;45288;51.136;16.928;2023-03-23T00:38:21;104.55;;;65.97;;
59474;SDS011;45288;51.136;16.928;2023-03-23T00:40:47;108.05;;;68.88;;
59474;SDS011;45288;51.136;16.928;2023-03-23T00:43:15;116.03;;;75.25;;
59474;SDS011;45288;51.136;16.928;2023-03-23T00:45:42;109.57;;;75.90;;
59474;SDS011;45288;51.136;16.928;2023-03-23T00:48:08;118.10;;;90.03;;
59474;SDS011;45288;51.136;16.928;2023-03-23T00:50:34;102.18;;;69.00;;
59474;SDS011;45288;51.136;16.928;2023-03-23T00:52:59;98.68;;;66.43;;
59474;SDS011;45288;51.136;16.928;2023-03-23T00:55:25;106.15;;;75.13;;
59474;SDS011;45288;51.136;16.928;2023-03-23T00:57:51;119.25;;;78.63;;
59474;SDS011;45288;51.136;16.928;2023-03-23T01:00:17;118.83;;;84.27;;
59474;SDS011;45288;51.136;16.928;2023-03-23T01:02:44;110.07;;;81.50;;
59474;SDS011;45288;51.136;16.928;2023-03-23T01:05:10;136.80;;;105.85;;
59474;SDS011;45288;51.136;16.928;2023-03-23T01:07:36;155.07;;;121.33;;
59474;SDS011;45288;51.136;16.928;2023-03-23T01:10:03;130.68;;;113.40;;
59474;SDS011;45288;51.136;16.928;2023-03-23T01:12:29;167.57;;;148.23;;
59474;SDS011;45288;51.136;16.928;2023-03-23T01:14:55;111.85;;;90.50;;
59474;SDS011;45288;51.136;16.928;2023-03-23T01:17:21;140.23;;;109.70;;
59474;SDS011;45288;51.136;16.928;2023-03-23T01:19:46;142.02;;;120.43;;
59474;SDS011;45288;51.136;16.928;2023-03-23T01:22:12;152.53;;;136.23;;
59474;SDS011;45288;51.136;16.928;2023-03-23T01:24:38;158.43;;;141.20;;
59474;SDS011;45288;51.136;16.928;2023-03-23T01:27:03;166.27;;;148.97;;
59474;SDS011;45288;51.136;16.928;2023-03-23T01:29:33;160.73;;;143.67;;
59474;SDS011;45288;51.136;16.928;2023-03-23T01:31:58;225.40;;;205.27;;
59474;SDS011;45288;51.136;16.928;2023-03-23T01:34:24;182.45;;;163.32;;
59474;SDS011;45288;51.136;16.928;2023-03-23T01:36:50;167.13;;;138.70;;
59474;SDS011;45288;51.136;16.928;2023-03-23T01:39:16;155.23;;;127.32;;
59474;SDS011;45288;51.136;16.928;2023-03-23T01:41:44;143.97;;;116.40;;
59474;SDS011;45288;51.136;16.928;2023-03-23T01:46:58;146.93;;;132.05;;
59474;SDS011;45288;51.136;16.928;2023-03-23T01:49:25;127.30;;;98.97;;
59474;SDS011;45288;51.136;16.928;2023-03-23T01:51:53;144.55;;;114.15;;
59474;SDS011;45288;51.136;16.928;2023-03-23T01:54:21;135.05;;;101.45;;
59474;SDS011;45288;51.136;16.928;2023-03-23T01:56:55;130.45;;;107.43;;
59474;SDS011;45288;51.136;16.928;2023-03-23T01:59:22;142.77;;;114.90;;
59474;SDS011;45288;51.136;16.928;2023-03-23T02:01:58;128.00;;;100.25;;
59474;SDS011;45288;51.136;16.928;2023-03-23T02:04:26;95.65;;;73.93;;
59474;SDS011;45288;51.136;16.928;2023-03-23T02:06:52;133.07;;;112.32;;
59474;SDS011;45288;51.136;16.928;2023-03-23T02:09:21;152.63;;;120.13;;
59474;SDS011;45288;51.136;16.928;2023-03-23T02:11:48;160.98;;;143.38;;
59474;SDS011;45288;51.136;16.928;2023-03-23T02:14:21;181.40;;;163.03;;
59474;SDS011;45288;51.136;16.928;2023-03-23T02:22:09;97.40;;;62.67;;
59474;SDS011;45288;51.136;16.928;2023-03-23T02:27:14;87.45;;;54.88;;
59474;SDS011;45288;51.136;16.928;2023-03-23T02:29:51;83.55;;;53.40;;
59474;SDS011;45288;51.136;16.928;2023-03-23T02:34:53;79.63;;;48.92;;
59474;SDS011;45288;51.136;16.928;2023-03-23T02:37:32;78.03;;;52.97;;
59474;SDS011;45288;51.136;16.928;2023-03-23T02:42:34;84.22;;;52.85;;
59474;SDS011;45288;51.136;16.928;2023-03-23T02:45:05;80.18;;;52.17;;
59474;SDS011;45288;51.136;16.928;2023-03-23T02:47:32;88.72;;;56.60;;
59474;SDS011;45288;51.136;16.928;2023-03-23T02:50:00;73.03;;;48.80;;
59474;SDS011;45288;51.136;16.928;2023-03-23T02:52:27;78.80;;;52.00;;
59474;SDS011;45288;51.136;16.928;2023-03-23T02:54:52;80.43;;;51.88;;
59474;SDS011;45288;51.136;16.928;2023-03-23T02:57:19;86.15;;;53.47;;
59474;SDS011;45288;51.136;16.928;2023-03-23T02:59:45;89.68;;;57.97;;
59474;SDS011;45288;51.136;16.928;2023-03-23T03:02:12;76.77;;;49.43;;
59474;SDS011;45288;51.136;16.928;2023-03-23T03:04:40;85.35;;;53.47;;
59474;SDS011;45288;51.136;16.928;2023-03-23T03:15:03;125.40;;;111.13;;
59474;SDS011;45288;51.136;16.928;2023-03-23T03:17:30;118.93;;;94.00;;
59474;SDS011;45288;51.136;16.928;2023-03-23T03:19:57;117.75;;;85.00;;
59474;SDS011;45288;51.136;16.928;2023-03-23T03:22:25;107.28;;;69.25;;
59474;SDS011;45288;51.136;16.928;2023-03-23T03:24:55;97.75;;;69.90;;
59474;SDS011;45288;51.136;16.928;2023-03-23T03:27:22;100.25;;;70.70;;
59474;SDS011;45288;51.136;16.928;2023-03-23T03:30:01;114.15;;;82.75;;
59474;SDS011;45288;51.136;16.928;2023-03-23T03:32:36;102.68;;;84.32;;
59474;SDS011;45288;51.136;16.928;2023-03-23T03:35:04;103.32;;;77.82;;
59474;SDS011;45288;51.136;16.928;2023-03-23T03:37:37;107.87;;;76.60;;
59474;SDS011;45288;51.136;16.928;2023-03-23T03:40:05;92.32;;;61.67;;
59474;SDS011;45288;51.136;16.928;2023-03-23T03:42:40;105.90;;;70.07;;
59474;SDS011;45288;51.136;16.928;2023-03-23T03:45:08;144.60;;;129.48;;
59474;SDS011;45288;51.136;16.928;2023-03-23T03:47:34;389.63;;;357.73;;
59474;SDS011;45288;51.136;16.928;2023-03-23T03:50:00;112.15;;;93.18;;
59474;SDS011;45288;51.136;16.928;2023-03-23T03:52:26;111.43;;;81.93;;
59474;SDS011;45288;51.136;16.928;2023-03-23T03:54:53;106.97;;;74.57;;
59474;SDS011;45288;51.136;16.928;2023-03-23T03:57:18;100.28;;;70.60;;
59474;SDS011;45288;51.136;16.928;2023-03-23T03:59:56;109.07;;;74.93;;
59474;SDS011;45288;51.136;16.928;2023-03-23T04:02:44;98.95;;;74.88;;
59474;SDS011;45288;51.136;16.928;2023-03-23T04:05:13;120.88;;;86.18;;
59474;SDS011;45288;51.136;16.928;2023-03-23T04:07:40;101.78;;;55.38;;
59474;SDS011;45288;51.136;16.928;2023-03-23T04:10:06;102.30;;;69.07;;
59474;SDS011;45288;51.136;16.928;2023-03-23T04:12:34;124.07;;;97.00;;
59474;SDS011;45288;51.136;16.928;2023-03-23T04:15:18;121.00;;;90.27;;
59474;SDS011;45288;51.136;16.928;2023-03-23T04:17:46;103.88;;;76.68;;
59474;SDS011;45288;51.136;16.928;2023-03-23T04:20:12;108.43;;;75.22;;
59474;SDS011;45288;51.136;16.928;2023-03-23T04:22:48;93.80;;;66.35;;
59474;SDS011;45288;51.136;16.928;2023-03-23T04:25:16;104.13;;;66.28;;
59474;SDS011;45288;51.136;16.928;2023-03-23T04:27:43;100.67;;;62.43;;
59474;SDS011;45288;51.136;16.928;2023-03-23T04:30:10;101.05;;;71.82;;
59474;SDS011;45288;51.136;16.928;2023-03-23T04:32:41;107.87;;;75.80;;
59474;SDS011;45288;51.136;16.928;2023-03-23T04:35:08;129.13;;;113.33;;
59474;SDS011;45288;51.136;16.928;2023-03-23T04:37:40;108.72;;;80.57;;
59474;SDS011;45288;51.136;16.928;2023-03-23T04:40:07;120.25;;;91.20;;
59474;SDS011;45288;51.136;16.928;2023-03-23T04:42:37;119.88;;;89.65;;
59474;SDS011;45288;51.136;16.928;2023-03-23T04:45:31;93.95;;;60.75;;
59474;SDS011;45288;51.136;16.928;2023-03-23T04:48:00;78.38;;;51.30;;
59474;SDS011;45288;51.136;16.928;2023-03-23T04:50:38;75.43;;;51.23;;
59474;SDS011;45288;51.136;16.928;2023-03-23T04:53:14;128.30;;;114.13;;
59474;SDS011;45288;51.136;16.928;2023-03-23T04:55:41;139.80;;;126.22;;
59474;SDS011;45288;51.136;16.928;2023-03-23T04:58:09;131.48;;;107.95;;
59474;SDS011;45288;51.136;16.928;2023-03-23T05:00:43;111.55;;;88.32;;
59474;SDS011;45288;51.136;16.928;2023-03-23T05:03:15;112.03;;;86.53;;
59474;SDS011;45288;51.136;16.928;2023-03-23T05:05:43;135.18;;;120.85;;
59474;SDS011;45288;51.136;16.928;2023-03-23T05:08:14;101.88;;;84.25;;
59474;SDS011;45288;51.136;16.928;2023-03-23T05:10:41;75.78;;;61.05;;
59474;SDS011;45288;51.136;16.928;2023-03-23T05:13:11;86.35;;;57.97;;
59474;SDS011;45288;51.136;16.928;2023-03-23T05:15:37;81.43;;;54.65;;
59474;SDS011;45288;51.136;16.928;2023-03-23T05:18:04;77.15;;;50.25;;
59474;SDS011;45288;51.136;16.928;2023-03-23T05:20:32;86.60;;;56.95;;
59474;SDS011;45288;51.136;16.928;2023-03-23T05:23:03;64.63;;;44.17;;
59474;SDS011;45288;51.136;16.928;2023-03-23T05:25:33;84.53;;;56.63;;
59474;SDS011;45288;51.136;16.928;2023-03-23T05:28:07;68.90;;;47.83;;
59474;SDS011;45288;51.136;16.928;2023-03-23T05:30:59;74.03;;;46.83;;
59474;SDS011;45288;51.136;16.928;2023-03-23T05:33:29;94.38;;;60.75;;
59474;SDS011;45288;51.136;16.928;2023-03-23T05:36:02;80.50;;;54.28;;
59474;SDS011;45288;51.136;16.928;2023-03-23T05:38:35;92.53;;;63.33;;
59474;SDS011;45288;51.136;16.928;2023-03-23T05:41:02;104.82;;;76.95;;
59474;SDS011;45288;51.136;16.928;2023-03-23T05:43:35;141.60;;;126.07;;
59474;SDS011;45288;51.136;16.928;2023-03-23T05:46:24;137.57;;;119.63;;
59474;SDS011;45288;51.136;16.928;2023-03-23T05:48:52;241.63;;;221.18;;
59474;SDS011;45288;51.136;16.928;2023-03-23T05:51:21;190.30;;;173.90;;
59474;SDS011;45288;51.136;16.928;2023-03-23T05:53:49;212.57;;;193.40;;
59474;SDS011;45288;51.136;16.928;2023-03-23T05:56:16;214.48;;;194.82;;
59474;SDS011;45288;51.136;16.928;2023-03-23T05:58:58;253.07;;;232.23;;
59474;SDS011;45288;51.136;16.928;2023-03-23T06:01:25;252.97;;;230.43;;
59474;SDS011;45288;51.136;16.928;2023-03-23T06:03:51;269.03;;;245.60;;
59474;SDS011;45288;51.136;16.928;2023-03-23T06:06:22;236.75;;;216.07;;
59474;SDS011;45288;51.136;16.928;2023-03-23T06:08:58;235.15;;;214.85;;
59474;SDS011;45288;51.136;16.928;2023-03-23T06:11:37;191.33;;;172.67;;
59474;SDS011;45288;51.136;16.928;2023-03-23T06:14:42;187.52;;;170.68;;
59474;SDS011;45288;51.136;16.928;2023-03-23T06:17:09;176.30;;;158.52;;
59474;SDS011;45288;51.136;16.928;2023-03-23T06:19:34;128.97;;;114.47;;
59474;SDS011;45288;51.136;16.928;2023-03-23T06:22:08;147.55;;;131.32;;
59474;SDS011;45288;51.136;16.928;2023-03-23T06:24:52;165.20;;;148.90;;
59474;SDS011;45288;51.136;16.928;2023-03-23T06:27:24;124.57;;;104.47;;
59474;SDS011;45288;51.136;16.928;2023-03-23T06:29:50;156.43;;;139.38;;
59474;SDS011;45288;51.136;16.928;2023-03-23T06:32:16;146.97;;;131.80;;
59474;SDS011;45288;51.136;16.928;2023-03-23T06:34:43;217.63;;;198.23;;
59474;SDS011;45288;51.136;16.928;2023-03-23T06:37:28;468.15;;;430.45;;
59474;SDS011;45288;51.136;16.928;2023-03-23T06:40:03;226.50;;;208.18;;
59474;SDS011;45288;51.136;16.928;2023-03-23T06:42:36;171.40;;;154.63;;
59474;SDS011;45288;51.136;16.928;2023-03-23T06:45:22;145.48;;;130.48;;
59474;SDS011;45288;51.136;16.928;2023-03-23T06:47:52;125.85;;;112.78;;
59474;SDS011;45288;51.136;16.928;2023-03-23T06:50:18;185.07;;;165.97;;
59474;SDS011;45288;51.136;16.928;2023-03-23T06:52:46;127.55;;;113.25;;
59474;SDS011;45288;51.136;16.928;2023-03-23T06:55:12;127.15;;;103.38;;
59474;SDS011;45288;51.136;16.928;2023-03-23T06:57:38;177.60;;;160.05;;
59474;SDS011;45288;51.136;16.928;2023-03-23T07:00:04;113.40;;;84.40;;
59474;SDS011;45288;51.136;16.928;2023-03-23T07:02:41;73.70;;;38.97;;
59474;SDS011;45288;51.136;16.928;2023-03-23T07:05:07;64.03;;;39.33;;
59474;SDS011;45288;51.136;16.928;2023-03-23T07:07:35;65.80;;;32.17;;
59474;SDS011;45288;51.136;16.928;2023-03-23T07:10:14;90.68;;;55.15;;
59474;SDS011;45288;51.136;16.928;2023-03-23T07:12:40;88.25;;;50.22;;
59474;SDS011;45288;51.136;16.928;2023-03-23T07:15:08;77.63;;;39.33;;
59474;SDS011;45288;51.136;16.928;2023-03-23T07:17:37;71.47;;;30.65;;
59474;SDS011;45288;51.136;16.928;2023-03-23T07:20:21;138.90;;;121.28;;
59474;SDS011;45288;51.136;16.928;2023-03-23T07:22:48;179.75;;;161.73;;
59474;SDS011;45288;51.136;16.928;2023-03-23T07:25:24;365.85;;;335.70;;
59474;SDS011;45288;51.136;16.928;2023-03-23T07:27:52;233.65;;;212.35;;
59474;SDS011;45288;51.136;16.928;2023-03-23T07:30:18;106.53;;;79.47;;
59474;SDS011;45288;51.136;16.928;2023-03-23T07:32:44;107.90;;;88.67;;
59474;SDS011;45288;51.136;16.928;2023-03-23T07:35:10;102.50;;;80.43;;
59474;SDS011;45288;51.136;16.928;2023-03-23T07:37:47;98.05;;;66.28;;
59474;SDS011;45288;51.136;16.928;2023-03-23T07:40:15;96.82;;;67.80;;
59474;SDS011;45288;51.136;16.928;2023-03-23T07:42:46;101.05;;;70.50;;
59474;SDS011;45288;51.136;16.928;2023-03-23T07:45:21;93.68;;;60.90;;
59474;SDS011;45288;51.136;16.928;2023-03-23T07:47:47;112.97;;;90.05;;
59474;SDS011;45288;51.136;16.928;2023-03-23T07:50:12;338.23;;;310.10;;
59474;SDS011;45288;51.136;16.928;2023-03-23T07:52:41;439.37;;;403.53;;
59474;SDS011;45288;51.136;16.928;2023-03-23T07:55:08;334.93;;;308.10;;
59474;SDS011;45288;51.136;16.928;2023-03-23T07:57:44;360.63;;;330.63;;
59474;SDS011;45288;51.136;16.928;2023-03-23T08:00:11;248.33;;;227.10;;
59474;SDS011;45288;51.136;16.928;2023-03-23T08:02:41;252.70;;;231.00;;
59474;SDS011;45288;51.136;16.928;2023-03-23T08:05:30;208.57;;;189.43;;
59474;SDS011;45288;51.136;16.928;2023-03-23T08:08:26;141.07;;;125.70;;
59474;SDS011;45288;51.136;16.928;2023-03-23T08:11:11;193.18;;;173.77;;
59474;SDS011;45288;51.136;16.928;2023-03-23T08:13:39;238.20;;;216.52;;
59474;SDS011;45288;51.136;16.928;2023-03-23T08:16:31;83.15;;;47.03;;
59474;SDS011;45288;51.136;16.928;2023-03-23T08:18:57;57.60;;;29.08;;
59474;SDS011;45288;51.136;16.928;2023-03-23T08:21:46;77.05;;;36.40;;
59474;SDS011;45288;51.136;16.928;2023-03-23T08:24:39;65.65;;;36.80;;
59474;SDS011;45288;51.136;16.928;2023-03-23T08:27:34;61.72;;;31.52;;
59474;SDS011;45288;51.136;16.928;2023-03-23T08:30:15;57.15;;;27.38;;
59474;SDS011;45288;51.136;16.928;2023-03-23T08:33:04;52.05;;;32.67;;
59474;SDS011;45288;51.136;16.928;2023-03-23T08:36:03;50.78;;;32.17;;
59474;SDS011;45288;51.136;16.928;2023-03-23T08:38:58;49.83;;;26.35;;
59474;SDS011;45288;51.136;16.928;2023-03-23T08:41:38;48.38;;;27.15;;
59474;SDS011;45288;51.136;16.928;2023-03-23T08:44:14;59.22;;;29.73;;
59474;SDS011;45288;51.136;16.928;2023-03-23T08:47:07;63.15;;;32.45;;
59474;SDS011;45288;51.136;16.928;2023-03-23T08:49:56;45.78;;;23.60;;
59474;SDS011;45288;51.136;16.928;2023-03-23T08:52:25;55.08;;;32.30;;
59474;SDS011;45288;51.136;16.928;2023-03-23T08:55:14;105.47;;;73.70;;
59474;SDS011;45288;51.136;16.928;2023-03-23T08:57:53;175.07;;;159.05;;
59474;SDS011;45288;51.136;16.928;2023-03-23T09:00:42;121.00;;;107.95;;
59474;SDS011;45288;51.136;16.928;2023-03-23T09:03:17;128.80;;;106.10;;
59474;SDS011;45288;51.136;16.928;2023-03-23T09:06:21;70.13;;;39.05;;
59474;SDS011;45288;51.136;16.928;2023-03-23T09:08:47;101.82;;;77.30;;
59474;SDS011;45288;51.136;16.928;2023-03-23T09:11:14;88.78;;;58.92;;
59474;SDS011;45288;51.136;16.928;2023-03-23T09:13:39;67.50;;;39.20;;
59474;SDS011;45288;51.136;16.928;2023-03-23T09:16:06;63.30;;;37.55;;
59474;SDS011;45288;51.136;16.928;2023-03-23T09:18:32;188.38;;;171.18;;
59474;SDS011;45288;51.136;16.928;2023-03-23T09:20:58;78.45;;;68.10;;
59474;SDS011;45288;51.136;16.928;2023-03-23T09:23:24;135.98;;;119.78;;
59474;SDS011;45288;51.136;16.928;2023-03-23T09:25:50;112.00;;;86.53;;
59474;SDS011;45288;51.136;16.928;2023-03-23T09:28:17;64.03;;;32.80;;
59474;SDS011;45288;51.136;16.928;2023-03-23T09:30:43;92.75;;;78.05;;
59474;SDS011;45288;51.136;16.928;2023-03-23T09:33:09;81.35;;;51.53;;
59474;SDS011;45288;51.136;16.928;2023-03-23T09:35:36;87.60;;;53.15;;
59474;SDS011;45288;51.136;16.928;2023-03-23T09:38:02;65.75;;;35.05;;
59474;SDS011;45288;51.136;16.928;2023-03-23T09:48:51;183.55;;;167.05;;
59474;SDS011;45288;51.136;16.928;2023-03-23T09:53:44;69.03;;;39.90;;
59474;SDS011;45288;51.136;16.928;2023-03-23T09:56:11;79.35;;;52.47;;
59474;SDS011;45288;51.136;16.928;2023-03-23T09:58:46;48.33;;;25.27;;
59474;SDS011;45288;51.136;16.928;2023-03-23T10:01:15;58.22;;;36.35;;
59474;SDS011;45288;51.136;16.928;2023-03-23T10:03:42;58.95;;;33.75;;
59474;SDS011;45288;51.136;16.928;2023-03-23T10:06:17;55.33;;;30.83;;
59474;SDS011;45288;51.136;16.928;2023-03-23T10:08:48;70.22;;;41.15;;
59474;SDS011;45288;51.136;16.928;2023-03-23T10:11:16;71.78;;;43.50;;
59474;SDS011;45288;51.136;16.928;2023-03-23T10:16:21;71.70;;;52.93;;
59474;SDS011;45288;51.136;16.928;2023-03-23T10:21:15;135.27;;;122.82;;
59474;SDS011;45288;51.136;16.928;2023-03-23T10:23:57;100.85;;;76.47;;
59474;SDS011;45288;51.136;16.928;2023-03-23T10:28:57;83.50;;;65.60;;
59474;SDS011;45288;51.136;16.928;2023-03-23T10:31:31;72.57;;;57.03;;
59474;SDS011;45288;51.136;16.928;2023-03-23T10:33:59;80.22;;;56.90;;
59474;SDS011;45288;51.136;16.928;2023-03-23T10:39:03;121.18;;;108.93;;
59474;SDS011;45288;51.136;16.928;2023-03-23T10:41:30;79.40;;;55.80;;
59474;SDS011;45288;51.136;16.928;2023-03-23T10:43:57;67.43;;;33.65;;
59474;SDS011;45288;51.136;16.928;2023-03-23T10:48:48;237.18;;;216.88;;
59474;SDS011;45288;51.136;16.928;2023-03-23T10:51:16;96.28;;;58.25;;
59474;SDS011;45288;51.136;16.928;2023-03-23T10:53:44;156.45;;;141.10;;
59474;SDS011;45288;51.136;16.928;2023-03-23T10:56:25;79.18;;;57.85;;
59474;SDS011;45288;51.136;16.928;2023-03-23T10:58:52;86.63;;;64.55;;
59474;SDS011;45288;51.136;16.928;2023-03-23T11:01:19;60.33;;;34.20;;
59474;SDS011;45288;51.136;16.928;2023-03-23T11:03:46;33.20;;;19.52;;
59474;SDS011;45288;51.136;16.928;2023-03-23T11:06:24;43.75;;;18.85;;
59474;SDS011;45288;51.136;16.928;2023-03-23T11:09:01;77.73;;;53.40;;
59474;SDS011;45288;51.136;16.928;2023-03-23T11:11:30;73.85;;;45.35;;
59474;SDS011;45288;51.136;16.928;2023-03-23T11:14:12;42.72;;;23.55;;
59474;SDS011;45288;51.136;16.928;2023-03-23T11:16:42;59.13;;;30.60;;
59474;SDS011;45288;51.136;16.928;2023-03-23T11:19:11;50.28;;;25.13;;
59474;SDS011;45288;51.136;16.928;2023-03-23T11:21:39;58.85;;;30.80;;
59474;SDS011;45288;51.136;16.928;2023-03-23T11:24:04;76.53;;;45.37;;
59474;SDS011;45288;51.136;16.928;2023-03-23T11:26:31;53.55;;;29.00;;
59474;SDS011;45288;51.136;16.928;2023-03-23T11:29:12;55.70;;;29.42;;
59474;SDS011;45288;51.136;16.928;2023-03-23T11:31:40;54.38;;;34.03;;
59474;SDS011;45288;51.136;16.928;2023-03-23T11:36:40;57.43;;;35.03;;
59474;SDS011;45288;51.136;16.928;2023-03-23T11:41:51;49.33;;;25.92;;
59474;SDS011;45288;51.136;16.928;2023-03-23T11:44:17;51.63;;;30.48;;
59474;SDS011;45288;51.136;16.928;2023-03-23T11:49:10;50.37;;;28.00;;
59474;SDS011;45288;51.136;16.928;2023-03-23T11:56:38;55.42;;;29.23;;
59474;SDS011;45288;51.136;16.928;2023-03-23T11:59:09;46.60;;;26.25;;
59474;SDS011;45288;51.136;16.928;2023-03-23T12:01:56;77.22;;;41.13;;
59474;SDS011;45288;51.136;16.928;2023-03-23T12:11:57;38.70;;;21.05;;
59474;SDS011;45288;51.136;16.928;2023-03-23T12:17:51;49.67;;;30.48;;
59474;SDS011;45288;51.136;16.928;2023-03-23T12:22:46;61.67;;;34.22;;
59474;SDS011;45288;51.136;16.928;2023-03-23T12:30:52;48.13;;;23.42;;
59474;SDS011;45288;51.136;16.928;2023-03-23T12:48:30;65.85;;;32.90;;
59474;SDS011;45288;51.136;16.928;2023-03-23T12:51:01;58.00;;;27.65;;
59474;SDS011;45288;51.136;16.928;2023-03-23T12:53:30;66.38;;;33.60;;
59474;SDS011;45288;51.136;16.928;2023-03-23T12:58:30;78.53;;;39.03;;
59474;SDS011;45288;51.136;16.928;2023-03-23T13:00:58;135.02;;;110.85;;
59474;SDS011;45288;51.136;16.928;2023-03-23T13:03:27;287.50;;;264.00;;
59474;SDS011;45288;51.136;16.928;2023-03-23T13:08:38;119.35;;;99.22;;
59474;SDS011;45288;51.136;16.928;2023-03-23T13:11:12;295.13;;;270.80;;
59474;SDS011;45288;51.136;16.928;2023-03-23T13:13:43;178.63;;;161.70;;
59474;SDS011;45288;51.136;16.928;2023-03-23T13:21:32;248.73;;;226.68;;
59474;SDS011;45288;51.136;16.928;2023-03-23T13:24:12;287.47;;;263.97;;
59474;SDS011;45288;51.136;16.928;2023-03-23T13:26:40;287.25;;;262.75;;
59474;SDS011;45288;51.136;16.928;2023-03-23T13:29:08;112.75;;;102.15;;
59474;SDS011;45288;51.136;16.928;2023-03-23T13:31:37;62.35;;;43.17;;
59474;SDS011;45288;51.136;16.928;2023-03-23T13:36:40;77.30;;;42.40;;
59474;SDS011;45288;51.136;16.928;2023-03-23T13:39:07;90.35;;;55.50;;
59474;SDS011;45288;51.136;16.928;2023-03-23T13:41:45;94.63;;;56.85;;
59474;SDS011;45288;51.136;16.928;2023-03-23T13:44:16;81.78;;;50.50;;
59474;SDS011;45288;51.136;16.928;2023-03-23T13:46:42;71.43;;;44.75;;
59474;SDS011;45288;51.136;16.928;2023-03-23T13:51:35;97.43;;;58.60;;
59474;SDS011;45288;51.136;16.928;2023-03-23T13:59:46;257.58;;;235.00;;
59474;SDS011;45288;51.136;16.928;2023-03-23T14:04:57;70.53;;;49.23;;
59474;SDS011;45288;51.136;16.928;2023-03-23T14:07:23;62.92;;;31.50;;
59474;SDS011;45288;51.136;16.928;2023-03-23T14:09:50;51.00;;;28.17;;
59474;SDS011;45288;51.136;16.928;2023-03-23T14:12:19;43.60;;;22.57;;
59474;SDS011;45288;51.136;16.928;2023-03-23T14:14:49;42.50;;;26.35;;
59474;SDS011;45288;51.136;16.928;2023-03-23T14:19:42;55.33;;;34.73;;
59474;SDS011;45288;51.136;16.928;2023-03-23T14:22:24;49.10;;;26.00;;
59474;SDS011;45288;51.136;16.928;2023-03-23T14:24:51;36.92;;;22.05;;
59474;SDS011;45288;51.136;16.928;2023-03-23T14:27:22;56.13;;;29.25;;
59474;SDS011;45288;51.136;16.928;2023-03-23T14:29:57;60.33;;;40.30;;
59474;SDS011;45288;51.136;16.928;2023-03-23T14:32:23;48.25;;;26.98;;
59474;SDS011;45288;51.136;16.928;2023-03-23T14:34:51;47.85;;;29.33;;
59474;SDS011;45288;51.136;16.928;2023-03-23T14:37:17;38.15;;;17.92;;
59474;SDS011;45288;51.136;16.928;2023-03-23T14:39:44;45.75;;;23.52;;
59474;SDS011;45288;51.136;16.928;2023-03-23T14:42:14;41.95;;;23.20;;
59474;SDS011;45288;51.136;16.928;2023-03-23T14:44:41;50.47;;;26.65;;
59474;SDS011;45288;51.136;16.928;2023-03-23T14:47:13;43.78;;;23.15;;
59474;SDS011;45288;51.136;16.928;2023-03-23T14:49:41;51.58;;;27.70;;
59474;SDS011;45288;51.136;16.928;2023-03-23T14:52:09;47.97;;;24.13;;
59474;SDS011;45288;51.136;16.928;2023-03-23T14:54:35;59.75;;;30.23;;
59474;SDS011;45288;51.136;16.928;2023-03-23T14:57:14;44.20;;;22.40;;
59474;SDS011;45288;51.136;16.928;2023-03-23T14:59:41;52.73;;;27.53;;
59474;SDS011;45288;51.136;16.928;2023-03-23T15:02:09;66.30;;;35.85;;
59474;SDS011;45288;51.136;16.928;2023-03-23T15:04:37;51.42;;;27.10;;
59474;SDS011;45288;51.136;16.928;2023-03-23T15:07:03;68.00;;;44.25;;
59474;SDS011;45288;51.136;16.928;2023-03-23T15:09:31;69.82;;;36.97;;
59474;SDS011;45288;51.136;16.928;2023-03-23T15:12:02;73.03;;;39.45;;
59474;SDS011;45288;51.136;16.928;2023-03-23T15:14:29;71.10;;;39.15;;
59474;SDS011;45288;51.136;16.928;2023-03-23T15:16:56;65.72;;;34.83;;
59474;SDS011;45288;51.136;16.928;2023-03-23T15:19:24;62.85;;;29.83;;
59474;SDS011;45288;51.136;16.928;2023-03-23T15:22:16;62.70;;;32.03;;
59474;SDS011;45288;51.136;16.928;2023-03-23T15:24:37;52.47;;;21.03;;
59474;SDS011;45288;51.136;16.928;2023-03-23T15:29:31;52.00;;;22.80;;
59474;SDS011;45288;51.136;16.928;2023-03-23T15:31:57;55.17;;;25.80;;
59474;SDS011;45288;51.136;16.928;2023-03-23T15:34:35;45.83;;;18.38;;
59474;SDS011;45288;51.136;16.928;2023-03-23T15:37:06;43.72;;;18.90;;
59474;SDS011;45288;51.136;16.928;2023-03-23T15:39:41;59.78;;;27.42;;
59474;SDS011;45288;51.136;16.928;2023-03-23T15:42:07;58.72;;;27.75;;
59474;SDS011;45288;51.136;16.928;2023-03-23T15:44:45;50.83;;;22.45;;
59474;SDS011;45288;51.136;16.928;2023-03-23T15:47:20;58.42;;;23.30;;
59474;SDS011;45288;51.136;16.928;2023-03-23T15:49:47;120.47;;;96.55;;
59474;SDS011;45288;51.136;16.928;2023-03-23T15:52:24;101.60;;;73.40;;
59474;SDS011;45288;51.136;16.928;2023-03-23T15:54:50;198.02;;;180.07;;
59474;SDS011;45288;51.136;16.928;2023-03-23T15:57:16;148.00;;;132.87;;
59474;SDS011;45288;51.136;16.928;2023-03-23T15:59:41;111.63;;;99.40;;
59474;SDS011;45288;51.136;16.928;2023-03-23T16:02:10;131.27;;;117.47;;
59474;SDS011;45288;51.136;16.928;2023-03-23T16:04:40;91.80;;;74.68;;
59474;SDS011;45288;51.136;16.928;2023-03-23T16:07:06;87.20;;;77.20;;
59474;SDS011;45288;51.136;16.928;2023-03-23T16:09:32;139.17;;;126.50;;
59474;SDS011;45288;51.136;16.928;2023-03-23T16:11:58;46.13;;;22.08;;
59474;SDS011;45288;51.136;16.928;2023-03-23T16:14:23;69.83;;;47.03;;
59474;SDS011;45288;51.136;16.928;2023-03-23T16:16:49;65.55;;;40.47;;
59474;SDS011;45288;51.136;16.928;2023-03-23T16:19:17;66.68;;;33.55;;
59474;SDS011;45288;51.136;16.928;2023-03-23T16:21:45;58.85;;;27.48;;